createdAt,value
2023-05-19T00:00:04.793Z,11.56
2023-05-19T00:02:39.697Z,11.54
2023-05-19T00:05:08.409Z,11.46
2023-05-19T00:07:37.461Z,11.49
2023-05-19T00:10:06.078Z,11.38
2023-05-19T00:12:35.183Z,11.34
2023-05-19T00:15:03.284Z,11.31
2023-05-19T00:17:30.964Z,11.27
2023-05-19T00:19:58.653Z,11.23
2023-05-19T00:22:26.346Z,11.21
2023-05-19T00:24:53.867Z,11.13
2023-05-19T00:27:21.393Z,11.13
2023-05-19T00:29:50.258Z,11.13
2023-05-19T00:32:17.913Z,11.05
2023-05-19T00:34:47.757Z,10.95
2023-05-19T00:37:15.492Z,10.93
2023-05-19T00:39:43.315Z,10.99
2023-05-19T00:42:10.958Z,10.94
2023-05-19T00:44:41.752Z,10.90
2023-05-19T00:47:10.854Z,10.94
2023-05-19T00:49:38.476Z,10.81
2023-05-19T00:52:07.311Z,10.70
2023-05-19T00:54:35.855Z,10.64
2023-05-19T00:57:04.245Z,10.76
2023-05-19T00:59:31.879Z,10.79
2023-05-19T01:01:59.478Z,10.84
2023-05-19T01:04:29.750Z,10.90
2023-05-19T01:06:57.669Z,10.79
2023-05-19T01:09:25.324Z,10.49
2023-05-19T01:11:53.379Z,10.51
2023-05-19T01:14:21.476Z,10.45
2023-05-19T01:16:56.540Z,10.30
2023-05-19T01:19:46.841Z,10.20
2023-05-19T01:22:22.916Z,10.31
2023-05-19T01:25:19.938Z,10.37
2023-05-19T01:28:17.024Z,10.44
2023-05-19T01:30:46.608Z,10.41
2023-05-19T01:33:15.648Z,10.35
2023-05-19T01:35:44.183Z,10.33
2023-05-19T01:38:13.284Z,10.13
2023-05-19T01:40:42.499Z,10.10
2023-05-19T01:43:11.787Z,10.17
2023-05-19T01:45:39.550Z,10.18
2023-05-19T01:48:11.104Z,10.24
2023-05-19T01:50:39.796Z,10.19
2023-05-19T01:53:07.407Z,10.16
2023-05-19T01:55:35.557Z,10.16
2023-05-19T01:58:08.477Z,10.13
2023-05-19T02:00:45.634Z,10.16
2023-05-19T02:03:26.823Z,10.18
2023-05-19T02:05:57.231Z,10.14
2023-05-19T02:08:28.270Z,9.96
2023-05-19T02:11:01.856Z,9.86
2023-05-19T02:13:32.641Z,9.75
2023-05-19T02:16:05.181Z,9.76
2023-05-19T02:18:35.349Z,9.67
2023-05-19T02:21:02.955Z,9.56
2023-05-19T02:23:30.538Z,9.76
2023-05-19T02:25:58.304Z,9.69
2023-05-19T02:28:28.402Z,9.65
2023-05-19T02:30:56.013Z,9.59
2023-05-19T02:33:25.973Z,9.26
2023-05-19T02:35:54.937Z,9.36
2023-05-19T02:38:22.497Z,9.34
2023-05-19T02:40:50.046Z,9.37
2023-05-19T02:43:17.593Z,9.33
2023-05-19T02:45:45.719Z,9.27
2023-05-19T02:48:13.396Z,9.16
2023-05-19T02:50:41.053Z,9.28
2023-05-19T02:53:10.042Z,9.32
2023-05-19T02:55:37.617Z,9.24
2023-05-19T02:58:05.288Z,9.22
2023-05-19T03:00:33.130Z,9.22
2023-05-19T03:03:02.950Z,9.20
2023-05-19T03:05:31.112Z,9.10
2023-05-19T03:07:58.696Z,9.06
2023-05-19T03:10:27.536Z,9.15
2023-05-19T03:12:55.138Z,9.05
2023-05-19T03:15:23.527Z,8.98
2023-05-19T03:17:51.949Z,8.86
2023-05-19T03:20:19.820Z,8.81
2023-05-19T03:22:47.421Z,8.86
2023-05-19T03:25:15.015Z,8.71
2023-05-19T03:27:44.331Z,9.04
2023-05-19T03:30:13.434Z,9.13
2023-05-19T03:32:54.168Z,9.02
2023-05-19T03:35:22.206Z,8.87
2023-05-19T03:37:50.093Z,8.99
2023-05-19T03:40:18.835Z,9.09
2023-05-19T03:42:47.945Z,9.03
2023-05-19T03:45:15.628Z,8.96
2023-05-19T03:47:47.196Z,8.86
2023-05-19T03:50:48.537Z,8.73
2023-05-19T03:53:20.748Z,8.55
2023-05-19T03:55:49.541Z,8.61
2023-05-19T03:58:18.852Z,8.53
2023-05-19T04:00:46.538Z,8.59
2023-05-19T04:03:15.240Z,8.56
2023-05-19T04:05:42.959Z,8.62
2023-05-19T04:08:10.523Z,8.49
2023-05-19T04:10:38.157Z,8.44
2023-05-19T04:13:05.853Z,8.49
2023-05-19T04:15:34.900Z,8.63
2023-05-19T04:18:02.608Z,8.61
2023-05-19T04:20:31.003Z,8.71
2023-05-19T04:22:58.676Z,8.76
2023-05-19T04:25:28.209Z,8.65
2023-05-19T04:27:57.822Z,8.62
2023-05-19T04:30:26.208Z,8.69
2023-05-19T04:32:55.315Z,8.68
2023-05-19T04:35:23.440Z,8.63
2023-05-19T04:37:54.282Z,8.76
2023-05-19T04:40:26.203Z,8.74
2023-05-19T04:42:54.180Z,8.68
2023-05-19T04:45:23.252Z,8.55
2023-05-19T04:47:58.611Z,8.56
2023-05-19T04:50:26.209Z,8.50
2023-05-19T04:52:53.898Z,8.51
2023-05-19T04:55:21.863Z,8.57
2023-05-19T04:57:50.719Z,8.72
2023-05-19T05:00:21.644Z,8.61
2023-05-19T05:03:00.835Z,8.44
2023-05-19T05:05:30.702Z,8.29
2023-05-19T05:07:58.553Z,8.25
2023-05-19T05:10:28.915Z,8.19
2023-05-19T05:12:57.459Z,8.13
2023-05-19T05:15:28.569Z,8.16
2023-05-19T05:17:57.687Z,8.17
2023-05-19T05:20:28.522Z,8.22
2023-05-19T05:22:57.683Z,8.28
2023-05-19T05:25:26.772Z,8.36
2023-05-19T05:27:54.524Z,8.47
2023-05-19T05:30:22.125Z,8.75
2023-05-19T05:32:50.443Z,8.61
2023-05-19T05:35:46.680Z,8.67
2023-05-19T05:38:15.253Z,8.78
2023-05-19T05:40:43.153Z,8.91
2023-05-19T05:43:10.948Z,8.89
2023-05-19T05:45:45.271Z,9.00
2023-05-19T05:48:13.596Z,9.10
2023-05-19T05:50:41.628Z,9.29
2023-05-19T05:53:13.917Z,9.48
2023-05-19T05:55:42.519Z,9.64
2023-05-19T05:58:11.130Z,9.67
2023-05-19T06:00:38.933Z,9.82
2023-05-19T06:03:06.601Z,9.87
2023-05-19T06:05:34.357Z,9.99
2023-05-19T06:08:02.259Z,9.98
2023-05-19T06:10:32.440Z,10.05
2023-05-19T06:13:00.403Z,10.16
2023-05-19T06:15:28.103Z,10.18
2023-05-19T06:18:01.812Z,10.29
2023-05-19T06:20:30.045Z,10.45
2023-05-19T06:22:58.485Z,10.60
2023-05-19T06:25:27.882Z,10.64
2023-05-19T06:27:57.726Z,10.80
2023-05-19T06:30:25.665Z,10.87
2023-05-19T06:33:13.484Z,10.92
2023-05-19T06:35:41.137Z,11.03
2023-05-19T06:38:08.825Z,11.12
2023-05-19T06:40:37.155Z,11.22
2023-05-19T06:43:06.144Z,11.36
2023-05-19T06:45:54.370Z,11.50
2023-05-19T06:48:23.264Z,11.48
2023-05-19T06:50:51.681Z,11.61
2023-05-19T06:53:21.049Z,11.70
2023-05-19T06:55:58.561Z,11.83
2023-05-19T06:58:29.786Z,11.97
2023-05-19T07:00:58.252Z,12.09
2023-05-19T07:03:30.977Z,12.25
2023-05-19T07:05:59.561Z,12.32
2023-05-19T07:08:27.951Z,12.45
2023-05-19T07:10:56.287Z,12.47
2023-05-19T07:13:25.967Z,12.53
2023-05-19T07:15:56.641Z,12.53
2023-05-19T07:18:25.389Z,12.57
2023-05-19T07:20:53.189Z,12.64
2023-05-19T07:23:21.630Z,12.66
2023-05-19T07:25:49.213Z,12.64
2023-05-19T07:28:16.773Z,12.73
2023-05-19T07:30:44.566Z,12.77
2023-05-19T07:33:13.577Z,12.83
2023-05-19T07:35:41.224Z,12.92
2023-05-19T07:38:09.005Z,12.95
2023-05-19T07:40:36.553Z,13.04
2023-05-19T07:43:04.184Z,13.18
2023-05-19T07:45:31.771Z,13.39
2023-05-19T07:47:59.440Z,13.57
2023-05-19T07:50:28.388Z,13.75
2023-05-19T07:52:56.051Z,13.95
2023-05-19T07:55:23.763Z,14.04
2023-05-19T07:57:51.399Z,14.17
2023-05-19T08:00:19.429Z,14.28
2023-05-19T08:02:47.327Z,14.37
2023-05-19T08:05:15.000Z,14.60
2023-05-19T08:07:43.866Z,14.82
2023-05-19T08:10:11.519Z,15.02
2023-05-19T08:12:39.107Z,15.16
2023-05-19T08:15:07.461Z,15.27
2023-05-19T08:17:35.140Z,15.37
2023-05-19T08:20:03.964Z,15.40
2023-05-19T08:22:31.528Z,15.65
2023-05-19T08:25:01.359Z,15.69
2023-05-19T08:27:28.968Z,15.87
2023-05-19T08:29:57.297Z,15.96
2023-05-19T08:32:25.032Z,16.03
2023-05-19T08:34:52.961Z,15.79
2023-05-19T08:37:20.609Z,15.94
2023-05-19T08:39:48.190Z,16.01
2023-05-19T08:42:17.210Z,15.90
2023-05-19T08:44:44.818Z,15.94
2023-05-19T08:47:13.942Z,16.00
2023-05-19T08:49:45.142Z,16.13
2023-05-19T08:52:20.938Z,16.41
2023-05-19T08:54:53.268Z,16.40
2023-05-19T08:57:22.025Z,16.52
2023-05-19T08:59:50.182Z,16.69
2023-05-19T09:02:17.778Z,16.91
2023-05-19T09:04:47.995Z,16.84
2023-05-19T09:07:15.915Z,16.99
2023-05-19T09:09:44.070Z,17.15
2023-05-19T09:12:12.097Z,17.09
2023-05-19T09:14:41.191Z,17.09
2023-05-19T09:17:08.955Z,17.13
2023-05-19T09:19:36.648Z,17.14
2023-05-19T09:22:04.784Z,17.12
2023-05-19T09:24:32.984Z,17.20
2023-05-19T09:27:00.637Z,17.22
2023-05-19T09:29:28.464Z,17.20
2023-05-19T09:32:01.068Z,17.00
2023-05-19T09:34:29.004Z,17.13
2023-05-19T09:36:57.835Z,17.11
2023-05-19T09:39:25.909Z,16.84
2023-05-19T09:41:54.800Z,16.43
2023-05-19T09:44:24.054Z,16.49
2023-05-19T09:46:53.306Z,16.64
2023-05-19T09:49:23.895Z,16.81
2023-05-19T09:51:52.249Z,17.01
2023-05-19T09:54:21.485Z,17.13
2023-05-19T09:56:53.036Z,17.23
2023-05-19T09:59:21.237Z,17.38
2023-05-19T10:01:49.639Z,17.65
2023-05-19T10:04:17.700Z,17.83
2023-05-19T10:06:47.482Z,17.92
2023-05-19T10:09:15.941Z,18.08
2023-05-19T10:11:44.409Z,17.97
2023-05-19T10:14:12.019Z,18.04
2023-05-19T10:16:39.756Z,18.23
2023-05-19T10:19:08.860Z,18.09
2023-05-19T10:21:36.505Z,17.84
2023-05-19T10:24:05.643Z,18.03
2023-05-19T10:26:33.700Z,17.96
2023-05-19T10:29:01.922Z,18.22
2023-05-19T10:31:29.765Z,17.97
2023-05-19T10:34:13.455Z,17.52
2023-05-19T10:36:46.501Z,17.73
2023-05-19T10:39:19.282Z,18.00
2023-05-19T10:41:48.670Z,18.27
2023-05-19T10:44:22.313Z,18.37
2023-05-19T10:46:50.570Z,18.53
2023-05-19T10:49:21.801Z,18.49
2023-05-19T10:51:49.690Z,18.36
2023-05-19T10:54:20.947Z,18.40
2023-05-19T10:56:48.538Z,18.50
2023-05-19T10:59:33.440Z,18.48
2023-05-19T11:02:04.712Z,18.18
2023-05-19T11:04:51.165Z,18.14
2023-05-19T11:07:21.540Z,18.09
2023-05-19T11:09:52.693Z,18.13
2023-05-19T11:12:25.391Z,18.21
2023-05-19T11:14:53.558Z,18.27
2023-05-19T11:17:23.580Z,18.36
2023-05-19T11:19:55.510Z,18.29
2023-05-19T11:22:25.594Z,18.23
2023-05-19T11:24:56.063Z,18.17
2023-05-19T11:27:31.176Z,18.31
2023-05-19T11:30:00.507Z,18.50
2023-05-19T11:32:33.361Z,18.60
2023-05-19T11:35:01.258Z,18.55
2023-05-19T11:37:29.606Z,18.62
2023-05-19T11:39:58.954Z,18.75
2023-05-19T11:42:26.484Z,18.80
2023-05-19T11:44:57.539Z,19.03
2023-05-19T11:47:25.137Z,19.05
2023-05-19T11:49:52.880Z,18.85
2023-05-19T11:52:24.461Z,19.06
2023-05-19T11:54:52.417Z,19.19
2023-05-19T11:57:21.304Z,19.31
2023-05-19T11:59:49.794Z,19.44
2023-05-19T12:02:18.937Z,19.26
2023-05-19T12:04:47.264Z,19.40
2023-05-19T12:07:17.540Z,19.59
2023-05-19T12:09:45.772Z,19.63
2023-05-19T12:12:14.605Z,19.31
2023-05-19T12:14:43.828Z,19.29
2023-05-19T12:17:13.157Z,19.58
2023-05-19T12:19:41.155Z,19.52
2023-05-19T12:22:09.246Z,19.68
2023-05-19T12:24:37.888Z,19.87
2023-05-19T12:27:12.437Z,20.09
2023-05-19T12:29:40.490Z,20.12
2023-05-19T12:32:10.670Z,20.05
2023-05-19T12:34:39.080Z,20.09
2023-05-19T12:37:07.024Z,20.10
2023-05-19T12:39:34.679Z,19.79
2023-05-19T12:42:03.344Z,19.86
2023-05-19T12:44:31.425Z,19.86
2023-05-19T12:46:59.390Z,19.83
2023-05-19T12:49:28.318Z,19.70
2023-05-19T12:51:55.891Z,19.68
2023-05-19T12:54:23.600Z,19.61
2023-05-19T12:56:52.143Z,19.61
2023-05-19T12:59:34.646Z,19.72
2023-05-19T13:02:06.299Z,19.44
2023-05-19T13:04:36.200Z,19.50
2023-05-19T13:07:03.890Z,19.56
2023-05-19T13:09:38.067Z,19.61
2023-05-19T13:12:06.522Z,19.65
2023-05-19T13:14:34.205Z,19.67
2023-05-19T13:17:01.870Z,19.63
2023-05-19T13:19:30.027Z,19.59
2023-05-19T13:21:59.862Z,19.66
2023-05-19T13:24:27.421Z,19.32
2023-05-19T13:26:55.982Z,19.36
2023-05-19T13:29:23.868Z,19.36
2023-05-19T13:31:51.642Z,19.41
2023-05-19T13:34:19.718Z,19.51
2023-05-19T13:36:48.895Z,19.51
2023-05-19T13:39:17.837Z,19.58
2023-05-19T13:41:45.376Z,19.59
2023-05-19T13:44:12.961Z,19.64
2023-05-19T13:46:45.699Z,19.63
2023-05-19T13:49:14.047Z,19.63
2023-05-19T13:51:43.652Z,19.64
2023-05-19T13:54:11.369Z,19.36
2023-05-19T13:56:40.524Z,19.45
2023-05-19T13:59:08.260Z,19.40
2023-05-19T14:01:35.901Z,19.44
2023-05-19T14:04:03.552Z,19.38
2023-05-19T14:06:32.100Z,19.54
2023-05-19T14:08:59.657Z,19.54
2023-05-19T14:11:27.216Z,19.47
2023-05-19T14:13:56.110Z,19.37
2023-05-19T14:16:26.132Z,19.34
2023-05-19T14:18:54.071Z,19.20
2023-05-19T14:21:21.618Z,19.03
2023-05-19T14:23:49.260Z,18.94
2023-05-19T14:26:16.956Z,18.89
2023-05-19T14:28:44.492Z,18.98
2023-05-19T14:31:13.632Z,19.01
2023-05-19T14:33:41.302Z,19.00
2023-05-19T14:36:09.155Z,18.98
2023-05-19T14:38:36.919Z,18.97
2023-05-19T14:41:04.780Z,18.99
2023-05-19T14:43:32.292Z,19.03
2023-05-19T14:46:00.063Z,18.97
2023-05-19T14:48:28.969Z,18.97
2023-05-19T14:50:56.469Z,18.93
2023-05-19T14:53:24.052Z,18.82
2023-05-19T14:55:51.636Z,18.73
2023-05-19T14:58:27.576Z,18.57
2023-05-19T15:00:58.635Z,18.49
2023-05-19T15:03:26.310Z,18.46
2023-05-19T15:05:55.227Z,18.19
2023-05-19T15:08:23.429Z,18.13
2023-05-19T15:10:51.299Z,18.17
2023-05-19T15:13:19.149Z,18.12
2023-05-19T15:15:46.685Z,18.12
2023-05-19T15:18:16.282Z,18.19
2023-05-19T15:20:46.423Z,18.16
2023-05-19T15:23:15.816Z,18.16
2023-05-19T15:25:51.205Z,18.15
2023-05-19T15:28:18.971Z,18.19
2023-05-19T15:30:46.546Z,18.24
2023-05-19T15:33:14.239Z,18.19
2023-05-19T15:35:41.866Z,18.16
2023-05-19T15:38:09.415Z,18.09
2023-05-19T15:40:36.962Z,17.98
2023-05-19T15:43:05.816Z,17.97
2023-05-19T15:45:33.367Z,17.95
2023-05-19T15:48:01.576Z,17.92
2023-05-19T15:50:29.213Z,17.96
2023-05-19T15:52:56.774Z,17.86
2023-05-19T15:55:24.295Z,17.83
2023-05-19T15:57:51.830Z,17.86
2023-05-19T16:00:21.013Z,17.92
2023-05-19T16:02:48.654Z,17.96
2023-05-19T16:05:16.736Z,17.90
2023-05-19T16:07:44.325Z,17.88
2023-05-19T16:10:12.005Z,17.74
2023-05-19T16:12:39.628Z,17.72
2023-05-19T16:15:08.216Z,17.67
2023-05-19T16:17:37.294Z,17.68
2023-05-19T16:20:05.500Z,17.70
2023-05-19T16:22:33.038Z,17.72
2023-05-19T16:25:00.661Z,17.78
2023-05-19T16:27:28.161Z,17.67
2023-05-19T16:29:56.504Z,17.62
2023-05-19T16:32:24.165Z,17.55
2023-05-19T16:34:53.132Z,17.48
2023-05-19T16:37:20.898Z,17.42
2023-05-19T16:39:48.708Z,17.37
2023-05-19T16:42:16.327Z,17.33
2023-05-19T16:44:43.970Z,17.26
2023-05-19T16:47:11.481Z,17.19
2023-05-19T16:49:40.416Z,17.19
2023-05-19T16:52:09.276Z,17.11
2023-05-19T16:54:36.896Z,17.14
2023-05-19T16:57:04.759Z,17.13
2023-05-19T16:59:32.272Z,17.10
2023-05-19T17:01:59.853Z,17.05
2023-05-19T17:04:29.400Z,17.02
2023-05-19T17:06:58.276Z,16.98
2023-05-19T17:09:27.222Z,16.94
2023-05-19T17:11:54.952Z,16.88
2023-05-19T17:14:23.045Z,16.83
2023-05-19T17:16:52.390Z,16.73
2023-05-19T17:19:20.079Z,16.65
2023-05-19T17:21:47.672Z,16.69
2023-05-19T17:24:15.249Z,16.66
2023-05-19T17:26:44.128Z,16.70
2023-05-19T17:29:13.634Z,16.67
2023-05-19T17:31:41.430Z,16.69
2023-05-19T17:34:09.114Z,16.74
2023-05-19T17:36:36.718Z,16.63
2023-05-19T17:39:04.323Z,16.60
2023-05-19T17:41:31.897Z,16.63
2023-05-19T17:44:00.915Z,16.52
2023-05-19T17:46:30.197Z,16.57
2023-05-19T17:48:57.784Z,16.60
2023-05-19T17:51:25.881Z,16.55
2023-05-19T17:53:54.016Z,16.60
2023-05-19T17:56:23.056Z,16.58
2023-05-19T17:58:51.118Z,16.61
2023-05-19T18:01:23.756Z,16.60
2023-05-19T18:03:51.907Z,16.57
2023-05-19T18:06:20.202Z,16.58
2023-05-19T18:08:50.521Z,16.59
2023-05-19T18:11:19.091Z,16.45
2023-05-19T18:13:46.637Z,16.50
2023-05-19T18:16:14.236Z,16.50
2023-05-19T18:18:44.622Z,16.41
2023-05-19T18:21:14.323Z,16.37
2023-05-19T18:23:42.268Z,16.29
2023-05-19T18:26:11.321Z,16.34
2023-05-19T18:28:38.984Z,16.30
2023-05-19T18:31:07.953Z,16.17
2023-05-19T18:33:35.484Z,16.21
2023-05-19T18:36:04.813Z,16.25
2023-05-19T18:38:32.459Z,16.22
2023-05-19T18:41:00.759Z,16.22
2023-05-19T18:43:30.088Z,16.19
2023-05-19T18:45:58.231Z,16.17
2023-05-19T18:48:26.908Z,16.14
2023-05-19T18:50:54.654Z,16.15
2023-05-19T18:53:23.676Z,16.10
2023-05-19T18:55:51.221Z,16.07
2023-05-19T18:58:19.203Z,16.06
2023-05-19T19:00:50.753Z,16.07
2023-05-19T19:03:18.499Z,16.03
2023-05-19T19:05:46.108Z,15.99
2023-05-19T19:08:13.650Z,15.91
2023-05-19T19:10:43.336Z,15.90
2023-05-19T19:13:10.920Z,15.89
2023-05-19T19:15:39.665Z,15.91
2023-05-19T19:18:11.349Z,15.86
2023-05-19T19:20:39.010Z,15.88
2023-05-19T19:23:06.824Z,15.87
2023-05-19T19:25:34.469Z,15.84
2023-05-19T19:28:03.597Z,15.85
2023-05-19T19:30:31.263Z,15.81
2023-05-19T19:32:59.482Z,15.81
2023-05-19T19:35:27.229Z,15.75
2023-05-19T19:37:54.740Z,15.72
2023-05-19T19:40:22.673Z,15.70
2023-05-19T19:42:50.221Z,15.66
2023-05-19T19:45:19.541Z,15.61
2023-05-19T19:47:47.138Z,15.64
2023-05-19T19:50:14.864Z,15.68
2023-05-19T19:52:42.631Z,15.66
2023-05-19T19:55:10.989Z,15.59
2023-05-19T19:57:38.539Z,15.63
2023-05-19T20:00:08.577Z,15.59
2023-05-19T20:02:51.424Z,15.55
2023-05-19T20:05:25.981Z,15.47
2023-05-19T20:07:53.636Z,15.45
2023-05-19T20:10:21.388Z,15.37
2023-05-19T20:12:50.476Z,15.34
2023-05-19T20:15:18.311Z,15.28
2023-05-19T20:17:47.227Z,15.26
2023-05-19T20:20:15.173Z,15.28
2023-05-19T20:22:44.321Z,15.27
2023-05-19T20:25:12.114Z,15.20
2023-05-19T20:27:39.658Z,15.22
2023-05-19T20:30:08.434Z,15.20
2023-05-19T20:32:36.245Z,15.14
2023-05-19T20:35:05.800Z,15.16
2023-05-19T20:37:33.379Z,15.07
2023-05-19T20:40:00.950Z,15.05
2023-05-19T20:42:28.559Z,15.04
2023-05-19T20:44:56.294Z,15.03
2023-05-19T20:47:24.007Z,15.05
2023-05-19T20:49:51.590Z,15.08
2023-05-19T20:52:21.823Z,14.98
2023-05-19T20:54:49.402Z,14.99
2023-05-19T20:57:16.982Z,14.94
2023-05-19T20:59:44.676Z,14.91
2023-05-19T21:02:12.562Z,14.94
2023-05-19T21:04:40.167Z,14.90
2023-05-19T21:07:07.823Z,14.90
2023-05-19T21:09:36.744Z,14.95
2023-05-19T21:12:04.612Z,14.91
2023-05-19T21:14:32.122Z,14.90
2023-05-19T21:16:59.724Z,14.85
2023-05-19T21:19:27.581Z,14.79
2023-05-19T21:21:56.929Z,14.80
2023-05-19T21:24:24.491Z,14.79
2023-05-19T21:26:53.346Z,14.65
2023-05-19T21:29:20.860Z,14.69
2023-05-19T21:31:52.573Z,14.72
2023-05-19T21:34:20.418Z,14.64
2023-05-19T21:36:49.464Z,14.65
2023-05-19T21:39:17.623Z,14.68
2023-05-19T21:41:45.205Z,14.62
2023-05-19T21:44:14.067Z,14.58
2023-05-19T21:46:49.362Z,14.60
2023-05-19T21:49:17.268Z,14.48
2023-05-19T21:51:44.839Z,14.48
2023-05-19T21:54:12.385Z,14.48
2023-05-19T21:56:39.901Z,14.44
2023-05-19T21:59:07.632Z,14.49
2023-05-19T22:01:36.693Z,14.54
2023-05-19T22:04:04.584Z,14.51
2023-05-19T22:06:32.331Z,14.58
2023-05-19T22:09:01.146Z,14.45
2023-05-19T22:11:28.762Z,14.31
2023-05-19T22:13:56.345Z,14.48
2023-05-19T22:16:23.898Z,14.55
2023-05-19T22:18:52.832Z,14.54
2023-05-19T22:21:20.664Z,14.51
2023-05-19T22:23:48.219Z,14.56
2023-05-19T22:26:16.003Z,14.56
2023-05-19T22:28:43.536Z,14.55
2023-05-19T22:31:11.098Z,14.56
2023-05-19T22:33:38.613Z,14.58
2023-05-19T22:36:08.378Z,14.57
2023-05-19T22:38:36.291Z,14.57
2023-05-19T22:41:03.878Z,14.57
2023-05-19T22:43:31.440Z,14.58
2023-05-19T22:45:58.978Z,14.49
2023-05-19T22:48:26.542Z,14.51
2023-05-19T22:50:54.163Z,14.48
2023-05-19T22:53:23.021Z,14.45
2023-05-19T22:55:50.558Z,14.43
2023-05-19T22:58:18.265Z,14.30
2023-05-19T23:00:45.940Z,14.39
2023-05-19T23:03:13.548Z,14.43
2023-05-19T23:05:41.366Z,14.39
2023-05-19T23:08:08.956Z,14.40
2023-05-19T23:10:37.805Z,14.42
2023-05-19T23:13:05.473Z,14.40
2023-05-19T23:15:33.283Z,14.30
2023-05-19T23:18:01.311Z,14.33
2023-05-19T23:20:29.127Z,14.29
2023-05-19T23:22:56.664Z,14.18
2023-05-19T23:25:24.190Z,14.21
2023-05-19T23:27:53.026Z,14.22
2023-05-19T23:30:20.654Z,14.22
2023-05-19T23:32:48.250Z,14.22
2023-05-19T23:35:17.995Z,14.23
2023-05-19T23:37:45.588Z,14.18
2023-05-19T23:40:13.696Z,14.18
2023-05-19T23:42:41.242Z,14.18
2023-05-19T23:45:10.997Z,14.13
2023-05-19T23:47:38.809Z,14.17
2023-05-19T23:50:07.089Z,14.13
2023-05-19T23:52:34.655Z,14.11
2023-05-19T23:55:03.483Z,14.01
2023-05-19T23:57:31.066Z,13.99
2023-05-19T23:59:58.800Z,13.94
